createdAt,value
2018-08-07T00:00:50.594Z,990.19
2018-08-07T00:01:50.779Z,990.15
2018-08-07T00:02:50.954Z,990.17
2018-08-07T00:03:51.137Z,990.19
2018-08-07T00:04:51.319Z,990.18
2018-08-07T00:05:51.494Z,990.17
2018-08-07T00:06:51.666Z,990.16
2018-08-07T00:07:51.846Z,990.14
2018-08-07T00:08:52.182Z,990.16
2018-08-07T00:09:52.236Z,990.14
2018-08-07T00:10:52.414Z,990.12
2018-08-07T00:11:52.597Z,990.11
2018-08-07T00:12:52.768Z,990.12
2018-08-07T00:13:52.949Z,990.11
2018-08-07T00:14:53.128Z,990.08
2018-08-07T00:15:53.313Z,990.05
2018-08-07T00:16:53.489Z,990.05
2018-08-07T00:17:53.671Z,990.04
2018-08-07T00:18:53.847Z,990.00
2018-08-07T00:19:54.026Z,989.98
2018-08-07T00:20:54.210Z,989.92
2018-08-07T00:21:54.382Z,989.91
2018-08-07T00:22:54.566Z,989.89
2018-08-07T00:23:54.741Z,989.90
2018-08-07T00:24:54.924Z,989.91
2018-08-07T00:25:55.105Z,989.93
2018-08-07T00:26:55.288Z,989.97
2018-08-07T00:27:55.476Z,989.98
2018-08-07T00:28:55.648Z,989.98
2018-08-07T00:29:55.825Z,989.98
2018-08-07T00:30:56.009Z,989.98
2018-08-07T00:31:56.183Z,989.99
2018-08-07T00:32:56.365Z,990.00
2018-08-07T00:33:56.548Z,989.96
2018-08-07T00:34:56.721Z,989.97
2018-08-07T00:35:56.915Z,989.94
2018-08-07T00:36:57.096Z,989.98
2018-08-07T00:37:57.394Z,989.95
2018-08-07T00:38:57.458Z,989.95
2018-08-07T00:39:57.634Z,990.00
2018-08-07T00:40:57.812Z,989.94
2018-08-07T00:41:57.988Z,989.92
2018-08-07T00:42:58.163Z,989.92
2018-08-07T00:43:58.336Z,989.94
2018-08-07T00:44:58.513Z,989.95
2018-08-07T00:45:58.700Z,989.93
2018-08-07T00:46:58.875Z,989.92
2018-08-07T00:47:59.049Z,989.91
2018-08-07T00:48:59.228Z,989.90
2018-08-07T00:49:59.403Z,989.90
2018-08-07T00:50:59.578Z,989.86
2018-08-07T00:51:59.762Z,989.84
2018-08-07T00:52:59.937Z,989.87
2018-08-07T00:54:00.122Z,989.84
2018-08-07T00:55:00.297Z,989.84
2018-08-07T00:56:00.478Z,989.81
2018-08-07T00:57:00.653Z,989.85
2018-08-07T00:58:00.826Z,989.85
2018-08-07T00:59:01.004Z,989.87
2018-08-07T01:00:01.185Z,989.86
2018-08-07T01:01:01.363Z,989.84
2018-08-07T01:02:01.546Z,989.84
2018-08-07T01:03:01.730Z,989.82
2018-08-07T01:04:01.906Z,989.82
2018-08-07T01:05:02.087Z,989.79
2018-08-07T01:06:02.266Z,989.81
2018-08-07T01:07:02.451Z,989.75
2018-08-07T01:08:02.632Z,989.72
2018-08-07T01:09:02.807Z,989.73
2018-08-07T01:10:02.985Z,989.76
2018-08-07T01:11:03.164Z,989.78
2018-08-07T01:12:03.345Z,989.76
2018-08-07T01:13:03.516Z,989.70
2018-08-07T01:14:03.695Z,989.74
2018-08-07T01:15:03.878Z,989.75
2018-08-07T01:16:04.054Z,989.75
2018-08-07T01:17:04.237Z,989.71
2018-08-07T01:18:04.417Z,989.73
2018-08-07T01:19:04.597Z,989.69
2018-08-07T01:20:04.796Z,989.72
2018-08-07T01:21:04.980Z,989.71
2018-08-07T01:22:05.161Z,989.69
2018-08-07T01:23:05.330Z,989.72
2018-08-07T01:24:05.509Z,989.67
2018-08-07T01:25:05.692Z,989.66
2018-08-07T01:26:05.873Z,989.70
2018-08-07T01:27:06.121Z,989.64
2018-08-07T01:28:06.230Z,989.67
2018-08-07T01:29:06.411Z,989.64
2018-08-07T01:30:06.593Z,989.62
2018-08-07T01:31:06.768Z,989.68
2018-08-07T01:32:06.947Z,989.59
2018-08-07T01:33:07.123Z,989.64
2018-08-07T01:34:07.305Z,989.63
2018-08-07T01:35:07.487Z,989.62
2018-08-07T01:36:07.665Z,989.63
2018-08-07T01:37:07.831Z,989.58
2018-08-07T01:38:08.010Z,989.62
2018-08-07T01:39:08.191Z,989.62
2018-08-07T01:40:08.364Z,989.60
2018-08-07T01:41:08.541Z,989.55
2018-08-07T01:42:08.714Z,989.57
2018-08-07T01:43:08.890Z,989.54
2018-08-07T01:44:09.066Z,989.55
2018-08-07T01:45:09.240Z,989.52
2018-08-07T01:46:09.423Z,989.47
2018-08-07T01:47:09.602Z,989.48
2018-08-07T01:48:09.788Z,989.46
2018-08-07T01:49:09.962Z,989.47
2018-08-07T01:50:10.138Z,989.45
2018-08-07T01:51:10.309Z,989.48
2018-08-07T01:52:10.494Z,989.46
2018-08-07T01:53:10.667Z,989.46
2018-08-07T01:54:10.845Z,989.44
2018-08-07T01:55:11.022Z,989.47
2018-08-07T01:56:11.201Z,989.44
2018-08-07T01:57:11.373Z,989.46
2018-08-07T01:58:11.550Z,989.40
2018-08-07T01:59:11.723Z,989.45
2018-08-07T02:00:11.902Z,989.43
2018-08-07T02:01:12.081Z,989.41
2018-08-07T02:02:12.269Z,989.43
2018-08-07T02:03:12.444Z,989.45
2018-08-07T02:04:12.619Z,989.46
2018-08-07T02:05:12.801Z,989.48
2018-08-07T02:06:12.973Z,989.48
2018-08-07T02:07:13.150Z,989.44
2018-08-07T02:08:13.325Z,989.45
2018-08-07T02:09:13.499Z,989.45
2018-08-07T02:10:13.676Z,989.43
2018-08-07T02:11:13.849Z,989.45
2018-08-07T02:12:14.028Z,989.43
2018-08-07T02:13:14.204Z,989.44
2018-08-07T02:14:14.391Z,989.43
2018-08-07T02:15:14.552Z,989.44
2018-08-07T02:16:14.731Z,989.43
2018-08-07T02:17:14.916Z,989.43
2018-08-07T02:18:15.087Z,989.41
2018-08-07T02:19:15.267Z,989.35
2018-08-07T02:20:15.442Z,989.38
2018-08-07T02:21:15.625Z,989.36
2018-08-07T02:22:15.830Z,989.37
2018-08-07T02:23:16.009Z,989.37
2018-08-07T02:24:16.187Z,989.36
2018-08-07T02:25:16.362Z,989.39
2018-08-07T02:26:16.543Z,989.34
2018-08-07T02:27:16.719Z,989.36
2018-08-07T02:28:16.895Z,989.35
2018-08-07T02:29:17.068Z,989.35
2018-08-07T02:30:17.249Z,989.37
2018-08-07T02:31:17.434Z,989.40
2018-08-07T02:32:17.609Z,989.33
2018-08-07T02:33:17.787Z,989.34
2018-08-07T02:34:17.966Z,989.36
2018-08-07T02:35:18.141Z,989.33
2018-08-07T02:36:18.321Z,989.31
2018-08-07T02:37:18.493Z,989.29
2018-08-07T02:38:18.675Z,989.32
2018-08-07T02:39:18.846Z,989.31
2018-08-07T02:40:19.030Z,989.29
2018-08-07T02:41:19.212Z,989.29
2018-08-07T02:42:19.376Z,989.27
2018-08-07T02:43:19.555Z,989.26
2018-08-07T02:44:19.731Z,989.30
2018-08-07T02:45:19.921Z,989.29
2018-08-07T02:46:20.112Z,989.26
2018-08-07T02:47:20.272Z,989.25
2018-08-07T02:48:20.441Z,989.23
2018-08-07T02:49:20.621Z,989.21
2018-08-07T02:50:20.802Z,989.25
2018-08-07T02:51:20.972Z,989.27
2018-08-07T02:52:21.148Z,989.23
2018-08-07T02:53:21.322Z,989.28
2018-08-07T02:54:21.503Z,989.26
2018-08-07T02:55:21.683Z,989.28
2018-08-07T02:56:21.862Z,989.23
2018-08-07T02:57:22.046Z,989.31
2018-08-07T02:58:22.219Z,989.32
2018-08-07T02:59:22.390Z,989.34
2018-08-07T03:00:22.565Z,989.30
2018-08-07T03:01:22.741Z,989.30
2018-08-07T03:02:22.924Z,989.24
2018-08-07T03:03:23.099Z,989.28
2018-08-07T03:04:23.277Z,989.32
2018-08-07T03:05:23.450Z,989.28
2018-08-07T03:06:23.628Z,989.33
2018-08-07T03:07:23.808Z,989.31
2018-08-07T03:08:23.975Z,989.32
2018-08-07T03:09:24.154Z,989.34
2018-08-07T03:10:24.333Z,989.36
2018-08-07T03:11:24.509Z,989.32
2018-08-07T03:12:24.688Z,989.33
2018-08-07T03:13:24.866Z,989.34
2018-08-07T03:14:25.040Z,989.33
2018-08-07T03:15:25.215Z,989.35
2018-08-07T03:16:25.394Z,989.32
2018-08-07T03:17:25.581Z,989.38
2018-08-07T03:18:25.757Z,989.36
2018-08-07T03:19:25.926Z,989.35
2018-08-07T03:20:26.102Z,989.38
2018-08-07T03:21:26.283Z,989.41
2018-08-07T03:22:26.460Z,989.40
2018-08-07T03:23:26.646Z,989.38
2018-08-07T03:24:26.820Z,989.42
2018-08-07T03:25:26.997Z,989.38
2018-08-07T03:26:27.170Z,989.46
2018-08-07T03:27:27.353Z,989.45
2018-08-07T03:28:27.527Z,989.45
2018-08-07T03:29:27.702Z,989.41
2018-08-07T03:30:27.881Z,989.45
2018-08-07T03:31:28.062Z,989.45
2018-08-07T03:32:28.235Z,989.43
2018-08-07T03:33:28.412Z,989.43
2018-08-07T03:34:28.590Z,989.45
2018-08-07T03:35:28.767Z,989.48
2018-08-07T03:36:28.940Z,989.43
2018-08-07T03:37:29.117Z,989.42
2018-08-07T03:38:29.305Z,989.42
2018-08-07T03:39:29.474Z,989.41
2018-08-07T03:40:29.656Z,989.47
2018-08-07T03:41:29.831Z,989.47
2018-08-07T03:42:30.003Z,989.46
2018-08-07T03:43:30.176Z,989.48
2018-08-07T03:44:30.358Z,989.47
2018-08-07T03:45:30.536Z,989.48
2018-08-07T03:46:30.709Z,989.44
2018-08-07T03:47:30.884Z,989.43
2018-08-07T03:48:31.062Z,989.43
2018-08-07T03:49:31.238Z,989.44
2018-08-07T03:50:31.411Z,989.48
2018-08-07T03:51:31.588Z,989.45
2018-08-07T03:52:31.768Z,989.47
2018-08-07T03:53:31.940Z,989.50
2018-08-07T03:54:32.117Z,989.52
2018-08-07T03:55:32.297Z,989.54
2018-08-07T03:56:32.476Z,989.56
2018-08-07T03:57:32.653Z,989.58
2018-08-07T03:58:32.839Z,989.58
2018-08-07T03:59:33.012Z,989.65
2018-08-07T04:00:33.183Z,989.60
2018-08-07T04:01:33.385Z,989.58
2018-08-07T04:02:33.561Z,989.59
2018-08-07T04:03:33.733Z,989.59
2018-08-07T04:04:33.907Z,989.61
2018-08-07T04:05:34.083Z,989.60
2018-08-07T04:06:34.658Z,989.59
2018-08-07T04:07:34.407Z,989.61
2018-08-07T04:08:34.592Z,989.63
2018-08-07T04:09:34.773Z,989.62
2018-08-07T04:10:34.951Z,989.61
2018-08-07T04:11:35.153Z,989.64
2018-08-07T04:12:35.305Z,989.64
2018-08-07T04:13:35.489Z,989.59
2018-08-07T04:14:35.667Z,989.63
2018-08-07T04:15:35.844Z,989.61
2018-08-07T04:16:36.123Z,989.62
2018-08-07T04:17:36.193Z,989.64
2018-08-07T04:18:36.369Z,989.61
2018-08-07T04:19:36.576Z,989.64
2018-08-07T04:20:36.729Z,989.63
2018-08-07T04:21:36.908Z,989.63
2018-08-07T04:22:37.090Z,989.60
2018-08-07T04:23:37.260Z,989.63
2018-08-07T04:24:37.441Z,989.61
2018-08-07T04:25:37.608Z,989.61
2018-08-07T04:26:37.784Z,989.61
2018-08-07T04:27:37.963Z,989.61
2018-08-07T04:28:38.158Z,989.63
2018-08-07T04:29:38.339Z,989.62
2018-08-07T04:30:38.509Z,989.61
2018-08-07T04:31:38.684Z,989.65
2018-08-07T04:32:38.861Z,989.64
2018-08-07T04:33:39.046Z,989.63
2018-08-07T04:34:39.228Z,989.63
2018-08-07T04:35:39.402Z,989.66
2018-08-07T04:36:39.576Z,989.63
2018-08-07T04:37:39.752Z,989.64
2018-08-07T04:38:39.923Z,989.61
2018-08-07T04:39:40.098Z,989.66
2018-08-07T04:40:40.276Z,989.68
2018-08-07T04:41:40.449Z,989.70
2018-08-07T04:42:40.627Z,989.72
2018-08-07T04:43:40.804Z,989.71
2018-08-07T04:44:40.987Z,989.73
2018-08-07T04:45:41.228Z,989.72
2018-08-07T04:46:41.373Z,989.74
2018-08-07T04:47:41.565Z,989.73
2018-08-07T04:48:41.734Z,989.75
2018-08-07T04:49:41.921Z,989.73
2018-08-07T04:50:42.094Z,989.73
2018-08-07T04:51:42.281Z,989.75
2018-08-07T04:52:42.456Z,989.70
2018-08-07T04:53:42.633Z,989.72
2018-08-07T04:54:42.809Z,989.70
2018-08-07T04:55:42.986Z,989.69
2018-08-07T04:56:43.175Z,989.70
2018-08-07T04:57:43.346Z,989.69
2018-08-07T04:58:44.712Z,989.69
2018-08-07T04:59:43.648Z,989.71
2018-08-07T05:00:43.844Z,989.73
2018-08-07T05:01:44.030Z,989.74
2018-08-07T05:02:44.209Z,989.73
2018-08-07T05:03:44.735Z,989.75
2018-08-07T05:04:44.531Z,989.77
2018-08-07T05:05:44.716Z,989.76
2018-08-07T05:06:44.906Z,989.76
2018-08-07T05:07:45.086Z,989.76
2018-08-07T05:08:45.268Z,989.79
2018-08-07T05:09:45.443Z,989.77
2018-08-07T05:10:45.677Z,989.76
2018-08-07T05:11:45.791Z,989.81
2018-08-07T05:12:46.019Z,989.78
2018-08-07T05:13:46.162Z,989.78
2018-08-07T05:14:46.384Z,989.80
2018-08-07T05:15:46.554Z,989.82
2018-08-07T05:16:46.729Z,989.84
2018-08-07T05:17:46.906Z,989.82
2018-08-07T05:18:47.181Z,989.86
2018-08-07T05:19:47.232Z,989.90
2018-08-07T05:20:47.407Z,989.87
2018-08-07T05:21:47.597Z,989.82
2018-08-07T05:22:47.778Z,989.88
2018-08-07T05:23:47.952Z,989.87
2018-08-07T05:24:48.138Z,989.90
2018-08-07T05:25:48.316Z,989.90
2018-08-07T05:26:48.657Z,989.91
2018-08-07T05:27:48.638Z,989.93
2018-08-07T05:28:48.877Z,989.89
2018-08-07T05:29:49.348Z,989.94
2018-08-07T05:30:49.121Z,989.92
2018-08-07T05:31:49.302Z,989.94
2018-08-07T05:32:49.475Z,989.91
2018-08-07T05:33:49.657Z,989.96
2018-08-07T05:34:49.838Z,989.92
2018-08-07T05:35:50.060Z,989.91
2018-08-07T05:36:50.255Z,989.92
2018-08-07T05:37:50.440Z,989.96
2018-08-07T05:38:50.645Z,989.93
2018-08-07T05:39:50.846Z,989.94
2018-08-07T05:40:51.036Z,989.95
2018-08-07T05:41:51.220Z,989.92
2018-08-07T05:42:51.478Z,989.95
2018-08-07T05:43:51.606Z,989.93
2018-08-07T05:44:51.812Z,989.92
2018-08-07T05:45:52.217Z,989.91
2018-08-07T05:46:52.170Z,989.88
2018-08-07T05:47:52.353Z,989.88
2018-08-07T05:48:52.532Z,989.89
2018-08-07T05:49:52.715Z,989.89
2018-08-07T05:50:53.079Z,989.91
2018-08-07T05:51:53.094Z,989.93
2018-08-07T05:52:53.284Z,989.93
2018-08-07T05:53:53.475Z,989.90
2018-08-07T05:54:53.679Z,989.94
2018-08-07T05:55:53.848Z,989.94
2018-08-07T05:56:54.043Z,989.89
2018-08-07T05:57:54.282Z,989.93
2018-08-07T05:58:54.509Z,989.93
2018-08-07T05:59:54.614Z,989.92
2018-08-07T06:00:54.797Z,990.05
2018-08-07T06:01:54.971Z,990.10
2018-08-07T06:02:55.145Z,989.94
2018-08-07T06:03:55.318Z,990.01
2018-08-07T06:04:55.494Z,990.02
2018-08-07T06:05:55.679Z,990.06
2018-08-07T06:06:55.856Z,990.03
2018-08-07T06:07:56.032Z,990.18
2018-08-07T06:08:56.205Z,990.16
2018-08-07T06:09:56.384Z,990.11
2018-08-07T06:10:56.744Z,990.13
2018-08-07T06:11:56.717Z,990.16
2018-08-07T06:12:56.898Z,990.23
2018-08-07T06:13:57.077Z,990.27
2018-08-07T06:14:57.266Z,990.29
2018-08-07T06:15:57.431Z,990.24
2018-08-07T06:16:57.611Z,990.28
2018-08-07T06:17:57.793Z,990.31
2018-08-07T06:18:57.978Z,990.26
2018-08-07T06:19:58.160Z,990.25
2018-08-07T06:20:58.337Z,990.25
2018-08-07T06:21:58.510Z,990.25
2018-08-07T06:22:58.687Z,990.23
2018-08-07T06:23:58.882Z,990.25
2018-08-07T06:24:59.081Z,990.24
2018-08-07T06:25:59.286Z,990.24
2018-08-07T06:26:59.523Z,990.20
2018-08-07T06:27:59.649Z,990.24
2018-08-07T06:28:59.810Z,990.22
2018-08-07T06:30:00.083Z,990.22
2018-08-07T06:31:00.214Z,990.19
2018-08-07T06:32:00.406Z,990.19
2018-08-07T06:33:00.589Z,990.18
2018-08-07T06:34:00.791Z,990.17
2018-08-07T06:35:01.009Z,990.17
2018-08-07T06:36:01.209Z,990.15
2018-08-07T06:37:01.407Z,990.17
2018-08-07T06:38:01.593Z,990.14
2018-08-07T06:39:01.778Z,990.15
2018-08-07T06:40:01.981Z,990.12
2018-08-07T06:41:02.153Z,990.06
2018-08-07T06:42:02.333Z,990.08
2018-08-07T06:43:02.543Z,990.05
2018-08-07T06:44:02.724Z,990.04
2018-08-07T06:45:02.903Z,990.05
2018-08-07T06:46:03.092Z,990.04
2018-08-07T06:47:03.281Z,990.03
2018-08-07T06:48:03.476Z,990.04
2018-08-07T06:49:03.663Z,989.98
2018-08-07T06:50:07.182Z,989.94
2018-08-07T06:51:04.021Z,989.94
2018-08-07T06:52:04.228Z,989.91
2018-08-07T06:53:04.405Z,989.92
2018-08-07T06:54:04.594Z,989.91
2018-08-07T06:55:04.777Z,989.92
2018-08-07T06:56:04.964Z,989.90
2018-08-07T06:57:05.201Z,989.89
2018-08-07T06:58:05.333Z,989.89
2018-08-07T06:59:05.538Z,989.92
2018-08-07T07:00:05.741Z,989.90
2018-08-07T07:01:05.938Z,989.88
2018-08-07T07:02:06.128Z,989.85
2018-08-07T07:03:06.326Z,989.84
2018-08-07T07:04:06.501Z,989.87
2018-08-07T07:05:06.696Z,989.85
2018-08-07T07:06:06.878Z,989.84
2018-08-07T07:07:07.087Z,989.82
2018-08-07T07:08:07.318Z,989.82
2018-08-07T07:09:07.412Z,989.82
2018-08-07T07:10:07.610Z,989.81
2018-08-07T07:11:07.832Z,989.81
2018-08-07T07:12:08.024Z,989.82
2018-08-07T07:13:08.236Z,989.79
2018-08-07T07:14:08.411Z,989.82
2018-08-07T07:15:08.614Z,989.85
2018-08-07T07:16:08.827Z,989.84
2018-08-07T07:17:09.044Z,989.83
2018-08-07T07:18:09.229Z,989.86
2018-08-07T07:19:09.418Z,989.90
2018-08-07T07:20:09.613Z,989.84
2018-08-07T07:21:09.806Z,989.86
2018-08-07T07:22:09.985Z,989.79
2018-08-07T07:23:10.202Z,989.77
2018-08-07T07:24:10.366Z,989.80
2018-08-07T07:25:10.550Z,989.84
2018-08-07T07:26:10.730Z,989.80
2018-08-07T07:27:10.909Z,989.79
2018-08-07T07:28:11.136Z,989.78
2018-08-07T07:29:11.364Z,989.80
2018-08-07T07:30:11.540Z,989.78
2018-08-07T07:31:11.705Z,989.81
2018-08-07T07:32:12.268Z,989.82
2018-08-07T07:33:12.065Z,989.77
2018-08-07T07:34:12.285Z,989.78
2018-08-07T07:35:12.452Z,989.80
2018-08-07T07:36:12.625Z,989.78
2018-08-07T07:37:12.814Z,989.76
2018-08-07T07:38:13.013Z,989.80
2018-08-07T07:39:13.194Z,989.74
2018-08-07T07:40:13.473Z,989.72
2018-08-07T07:41:13.535Z,989.75
2018-08-07T07:42:13.706Z,989.71
2018-08-07T07:43:13.897Z,989.73
2018-08-07T07:44:14.080Z,989.72
2018-08-07T07:45:14.263Z,989.72
2018-08-07T07:46:14.463Z,989.70
2018-08-07T07:47:14.660Z,989.72
2018-08-07T07:48:14.861Z,989.73
2018-08-07T07:49:15.908Z,989.73
2018-08-07T07:50:15.190Z,989.76
2018-08-07T07:51:15.475Z,989.75
2018-08-07T07:52:15.555Z,989.76
2018-08-07T07:53:15.751Z,989.77
2018-08-07T07:54:15.953Z,989.73
2018-08-07T07:55:16.140Z,989.76
2018-08-07T07:56:16.526Z,989.73
2018-08-07T07:57:16.504Z,989.74
2018-08-07T07:58:16.687Z,989.78
2018-08-07T07:59:16.879Z,989.75
2018-08-07T08:00:17.080Z,989.74
2018-08-07T08:01:17.271Z,989.77
2018-08-07T08:02:17.460Z,989.81
2018-08-07T08:03:17.649Z,989.82
2018-08-07T08:04:17.836Z,989.79
2018-08-07T08:05:18.033Z,989.77
2018-08-07T08:06:18.208Z,989.76
2018-08-07T08:07:18.404Z,989.81
2018-08-07T08:08:18.596Z,989.82
2018-08-07T08:09:18.774Z,989.82
2018-08-07T08:10:18.965Z,989.78
2018-08-07T08:11:19.152Z,989.81
2018-08-07T08:12:19.339Z,989.73
2018-08-07T08:13:19.524Z,989.74
2018-08-07T08:14:19.710Z,989.77
2018-08-07T08:15:19.902Z,989.73
2018-08-07T08:16:20.090Z,989.72
2018-08-07T08:17:20.270Z,989.71
2018-08-07T08:18:20.462Z,989.74
2018-08-07T08:19:20.660Z,989.76
2018-08-07T08:20:20.844Z,989.76
2018-08-07T08:21:21.042Z,989.73
2018-08-07T08:22:21.235Z,989.77
2018-08-07T08:23:21.430Z,989.77
2018-08-07T08:24:21.653Z,989.83
2018-08-07T08:25:21.857Z,989.81
2018-08-07T08:26:22.064Z,989.82
2018-08-07T08:27:22.233Z,989.85
2018-08-07T08:28:22.420Z,989.93
2018-08-07T08:29:22.827Z,989.99
2018-08-07T08:30:22.806Z,990.09
2018-08-07T08:31:22.987Z,990.03
2018-08-07T08:32:23.182Z,990.09
2018-08-07T08:33:23.372Z,990.09
2018-08-07T08:34:23.557Z,990.11
2018-08-07T08:35:23.759Z,990.18
2018-08-07T08:36:23.932Z,990.13
2018-08-07T08:37:24.119Z,990.15
2018-08-07T08:38:24.326Z,990.12
2018-08-07T08:39:24.501Z,990.12
2018-08-07T08:40:24.687Z,990.11
2018-08-07T08:41:24.879Z,990.09
2018-08-07T08:42:25.078Z,990.07
2018-08-07T08:43:25.269Z,990.06
2018-08-07T08:44:25.465Z,990.09
2018-08-07T08:45:25.679Z,990.10
2018-08-07T08:46:25.871Z,990.13
2018-08-07T08:47:26.057Z,990.08
2018-08-07T08:48:26.263Z,989.97
2018-08-07T08:49:26.446Z,989.89
2018-08-07T08:50:26.635Z,989.82
2018-08-07T08:51:26.830Z,989.79
2018-08-07T08:52:27.023Z,989.73
2018-08-07T08:53:27.218Z,989.72
2018-08-07T08:54:27.400Z,989.71
2018-08-07T08:55:27.637Z,989.65
2018-08-07T08:56:27.781Z,989.67
2018-08-07T08:57:27.968Z,989.68
2018-08-07T08:58:28.160Z,989.63
2018-08-07T08:59:28.346Z,989.62
2018-08-07T09:00:28.547Z,989.62
2018-08-07T09:01:28.739Z,989.61
2018-08-07T09:02:28.930Z,989.59
2018-08-07T09:03:29.121Z,989.64
2018-08-07T09:04:29.319Z,989.67
2018-08-07T09:05:29.516Z,989.67
2018-08-07T09:06:29.702Z,989.36
2018-08-07T09:07:32.892Z,989.59
2018-08-07T09:08:31.354Z,989.60
2018-08-07T09:09:30.217Z,989.56
2018-08-07T09:10:30.503Z,989.54
2018-08-07T09:11:30.659Z,989.50
2018-08-07T09:12:30.910Z,989.51
2018-08-07T09:13:30.989Z,989.52
2018-08-07T09:14:31.173Z,989.54
2018-08-07T09:15:32.935Z,989.56
2018-08-07T09:16:31.529Z,989.56
2018-08-07T09:17:31.728Z,989.53
2018-08-07T09:18:31.910Z,989.51
2018-08-07T09:19:32.106Z,989.51
2018-08-07T09:20:32.290Z,989.36
2018-08-07T09:21:32.479Z,989.38
2018-08-07T09:22:32.673Z,989.43
2018-08-07T09:23:32.868Z,989.44
2018-08-07T09:24:33.071Z,989.41
2018-08-07T09:25:33.325Z,989.35
2018-08-07T09:26:33.445Z,989.27
2018-08-07T09:27:33.626Z,989.29
2018-08-07T09:28:33.829Z,989.33
2018-08-07T09:29:34.048Z,989.35
2018-08-07T09:30:34.255Z,989.31
2018-08-07T09:31:34.450Z,989.22
2018-08-07T09:32:34.713Z,989.29
2018-08-07T09:33:34.824Z,989.31
2018-08-07T09:34:35.000Z,989.29
2018-08-07T09:35:35.200Z,989.21
2018-08-07T09:36:35.375Z,989.23
2018-08-07T09:37:35.566Z,989.24
2018-08-07T09:38:36.375Z,989.16
2018-08-07T09:39:35.962Z,989.08
2018-08-07T09:40:36.138Z,989.15
2018-08-07T09:41:36.327Z,989.15
2018-08-07T09:42:36.519Z,989.24
2018-08-07T09:43:36.895Z,989.29
2018-08-07T09:44:36.918Z,989.15
2018-08-07T09:45:37.107Z,989.30
2018-08-07T09:46:37.352Z,989.24
2018-08-07T09:47:38.348Z,989.19
2018-08-07T09:48:37.646Z,989.27
2018-08-07T09:49:37.847Z,989.25
2018-08-07T09:50:38.034Z,989.14
2018-08-07T09:51:38.246Z,989.12
2018-08-07T09:52:38.446Z,989.24
2018-08-07T09:53:38.651Z,989.22
2018-08-07T09:54:38.854Z,989.23
2018-08-07T09:55:39.100Z,988.94
2018-08-07T09:56:39.169Z,988.95
2018-08-07T09:57:39.365Z,988.95
2018-08-07T09:58:39.662Z,989.18
2018-08-07T09:59:39.789Z,989.23
2018-08-07T10:00:39.989Z,988.96
2018-08-07T10:01:40.180Z,988.98
2018-08-07T10:02:40.370Z,989.04
2018-08-07T10:03:40.560Z,989.24
2018-08-07T10:04:40.752Z,989.19
2018-08-07T10:05:40.950Z,989.21
2018-08-07T10:06:41.139Z,989.21
2018-08-07T10:07:41.337Z,989.15
2018-08-07T10:08:41.525Z,989.12
2018-08-07T10:09:41.738Z,989.12
2018-08-07T10:10:41.931Z,989.05
2018-08-07T10:11:42.128Z,989.14
2018-08-07T10:12:42.327Z,989.12
2018-08-07T10:13:42.514Z,989.12
2018-08-07T10:14:42.709Z,989.05
2018-08-07T10:15:42.900Z,988.93
2018-08-07T10:16:43.095Z,988.94
2018-08-07T10:17:43.338Z,988.85
2018-08-07T10:18:43.486Z,988.59
2018-08-07T10:19:43.681Z,988.92
2018-08-07T10:20:43.872Z,988.83
2018-08-07T10:21:44.075Z,988.83
2018-08-07T10:22:44.290Z,988.84
2018-08-07T10:23:44.499Z,988.78
2018-08-07T10:24:44.686Z,988.83
2018-08-07T10:25:44.870Z,988.54
2018-08-07T10:26:45.072Z,988.78
2018-08-07T10:27:45.261Z,988.97
2018-08-07T10:28:45.452Z,988.85
2018-08-07T10:29:45.643Z,988.91
2018-08-07T10:30:45.831Z,988.84
2018-08-07T10:31:46.020Z,988.88
2018-08-07T10:32:46.204Z,988.84
2018-08-07T10:33:46.429Z,988.85
2018-08-07T10:34:46.626Z,988.82
2018-08-07T10:35:47.024Z,988.85
2018-08-07T10:36:47.018Z,988.85
2018-08-07T10:37:50.483Z,988.87
2018-08-07T10:38:51.821Z,988.85
2018-08-07T10:39:47.585Z,988.90
2018-08-07T10:40:47.917Z,988.81
2018-08-07T10:41:47.990Z,988.80
2018-08-07T10:42:48.186Z,988.76
2018-08-07T10:43:48.591Z,988.78
2018-08-07T10:44:48.650Z,988.80
2018-08-07T10:45:48.710Z,988.77
2018-08-07T10:46:48.956Z,988.69
2018-08-07T10:47:49.250Z,988.69
2018-08-07T10:48:49.349Z,988.66
2018-08-07T10:49:49.549Z,988.66
2018-08-07T10:50:49.767Z,988.72
2018-08-07T10:51:49.927Z,988.74
2018-08-07T10:52:50.399Z,988.75
2018-08-07T10:53:51.171Z,988.77
2018-08-07T10:54:50.713Z,988.65
2018-08-07T10:55:50.689Z,988.13
2018-08-07T10:56:50.875Z,988.18
2018-08-07T10:57:51.126Z,988.45
2018-08-07T10:58:51.184Z,988.61
2018-08-07T10:59:51.391Z,988.62
2018-08-07T11:00:51.590Z,988.56
2018-08-07T11:01:51.789Z,988.60
2018-08-07T11:02:51.993Z,988.64
2018-08-07T11:03:52.213Z,988.56
2018-08-07T11:04:52.387Z,988.59
2018-08-07T11:05:52.601Z,988.56
2018-08-07T11:06:52.832Z,988.53
2018-08-07T11:07:53.063Z,988.54
2018-08-07T11:08:53.135Z,988.43
2018-08-07T11:09:53.316Z,988.39
2018-08-07T11:10:53.509Z,988.44
2018-08-07T11:11:57.369Z,988.39
2018-08-07T11:12:53.914Z,988.43
2018-08-07T11:13:54.101Z,988.41
2018-08-07T11:14:54.297Z,988.39
2018-08-07T11:15:54.862Z,987.86
2018-08-07T11:16:54.805Z,988.41
2018-08-07T11:17:55.166Z,988.43
2018-08-07T11:18:55.260Z,987.96
2018-08-07T11:19:55.912Z,987.90
2018-08-07T11:20:55.561Z,987.86
2018-08-07T11:21:55.921Z,987.97
2018-08-07T11:22:56.151Z,988.38
2018-08-07T11:23:56.214Z,988.41
2018-08-07T11:24:56.452Z,988.44
2018-08-07T11:25:56.442Z,988.42
2018-08-07T11:26:56.671Z,988.37
2018-08-07T11:27:56.971Z,987.91
2018-08-07T11:28:56.995Z,987.95
2018-08-07T11:29:57.289Z,987.85
2018-08-07T11:30:57.656Z,988.26
2018-08-07T11:31:57.623Z,987.91
2018-08-07T11:32:58.476Z,988.36
2018-08-07T11:33:58.836Z,988.33
2018-08-07T11:34:58.980Z,988.22
2018-08-07T11:35:58.363Z,987.85
2018-08-07T11:36:58.491Z,987.83
2018-08-07T11:37:58.659Z,987.98
2018-08-07T11:38:58.838Z,987.80
2018-08-07T11:39:59.068Z,987.78
2018-08-07T11:40:59.228Z,987.75
2018-08-07T11:41:59.369Z,987.72
2018-08-07T11:42:59.445Z,987.73
2018-08-07T11:43:59.742Z,987.72
2018-08-07T11:44:59.972Z,987.69
2018-08-07T11:46:00.314Z,987.77
2018-08-07T11:47:00.482Z,987.72
2018-08-07T11:48:00.358Z,987.76
2018-08-07T11:49:04.356Z,987.73
2018-08-07T11:50:05.411Z,987.74
2018-08-07T11:51:02.572Z,988.16
2018-08-07T11:52:01.040Z,987.81
2018-08-07T11:53:01.226Z,987.82
2018-08-07T11:54:01.412Z,987.77
2018-08-07T11:55:01.598Z,987.83
2018-08-07T11:56:01.788Z,988.13
2018-08-07T11:57:01.984Z,987.69
2018-08-07T11:58:02.175Z,987.69
2018-08-07T11:59:02.368Z,987.69
2018-08-07T12:00:02.563Z,987.91
2018-08-07T12:01:02.775Z,987.96
2018-08-07T12:02:02.955Z,987.76
2018-08-07T12:03:03.155Z,987.78
2018-08-07T12:04:03.337Z,987.87
2018-08-07T12:05:03.528Z,987.83
2018-08-07T12:06:03.779Z,987.78
2018-08-07T12:07:03.924Z,987.72
2018-08-07T12:08:04.116Z,987.61
2018-08-07T12:09:04.308Z,987.63
2018-08-07T12:10:04.499Z,987.65
2018-08-07T12:11:04.692Z,987.61
2018-08-07T12:12:04.937Z,987.62
2018-08-07T12:13:05.342Z,987.57
2018-08-07T12:14:05.294Z,987.56
2018-08-07T12:15:10.321Z,987.53
2018-08-07T12:16:05.662Z,987.54
2018-08-07T12:17:05.849Z,987.51
2018-08-07T12:18:06.054Z,987.48
2018-08-07T12:19:06.259Z,987.58
2018-08-07T12:20:06.462Z,987.59
2018-08-07T12:21:06.682Z,987.55
2018-08-07T12:22:06.879Z,987.46
2018-08-07T12:23:07.100Z,987.39
2018-08-07T12:24:07.307Z,987.37
2018-08-07T12:25:07.517Z,987.38
2018-08-07T12:26:07.737Z,987.34
2018-08-07T12:27:07.936Z,987.32
2018-08-07T12:28:08.131Z,987.35
2018-08-07T12:29:08.329Z,987.40
2018-08-07T12:30:08.518Z,987.39
2018-08-07T12:31:08.741Z,987.42